createdAt,value
2022-08-05T00:01:35.958Z,100022.69
2022-08-05T00:04:15.550Z,100012.91
2022-08-05T00:06:42.771Z,100003.63
2022-08-05T00:09:13.034Z,100000.63
2022-08-05T00:11:48.426Z,100006.91
2022-08-05T00:14:17.139Z,100017.50
2022-08-05T00:16:53.627Z,100017.19
2022-08-05T00:19:22.449Z,100030.78
2022-08-05T00:21:49.381Z,100024.81
2022-08-05T00:24:18.881Z,100011.19
2022-08-05T00:26:52.199Z,100017.22
2022-08-05T00:29:25.715Z,99993.78
2022-08-05T00:32:12.324Z,100007.94
2022-08-05T00:34:57.053Z,99988.34
2022-08-05T00:37:51.375Z,99997.31
2022-08-05T00:40:14.675Z,99986.44
2022-08-05T00:42:48.309Z,99997.59
2022-08-05T00:45:16.382Z,99998.94
2022-08-05T00:48:05.010Z,99980.16
2022-08-05T00:50:32.206Z,99983.97
2022-08-05T00:52:58.542Z,100000.84
2022-08-05T00:55:42.142Z,100008.72
2022-08-05T00:58:11.407Z,99992.94
2022-08-05T01:00:39.542Z,100007.63
2022-08-05T01:03:07.796Z,100008.44
2022-08-05T01:05:34.928Z,100016.03
2022-08-05T01:08:30.291Z,100007.03
2022-08-05T01:10:52.908Z,100016.88
2022-08-05T01:13:58.997Z,100021.97
2022-08-05T01:16:54.386Z,100020.88
2022-08-05T01:19:36.746Z,100024.66
2022-08-05T01:22:24.285Z,100021.66
2022-08-05T01:25:13.610Z,100030.63
2022-08-05T01:27:55.288Z,100038.78
2022-08-05T01:30:34.692Z,100044.44
2022-08-05T01:33:06.220Z,100031.06
2022-08-05T01:35:50.863Z,100050.94
2022-08-05T01:38:26.840Z,100035.38
2022-08-05T01:40:58.513Z,100071.28
2022-08-05T01:43:27.740Z,100062.25
2022-08-05T01:45:56.442Z,100052.44
2022-08-05T01:48:26.306Z,100054.06
2022-08-05T01:50:55.402Z,100055.94
2022-08-05T01:53:54.630Z,100061.34
2022-08-05T01:56:13.729Z,100057.75
2022-08-05T01:59:03.427Z,100052.53
2022-08-05T02:01:32.752Z,100067.16
2022-08-05T02:04:09.008Z,100066.84
2022-08-05T02:06:39.013Z,100071.16
2022-08-05T02:09:06.455Z,100066.44
2022-08-05T02:11:42.508Z,100073.44
2022-08-05T02:14:20.895Z,100078.53
2022-08-05T02:16:53.102Z,100100.56
2022-08-05T02:19:28.847Z,100123.84
2022-08-05T02:22:25.550Z,100125.41
2022-08-05T02:25:00.199Z,100128.94
2022-08-05T02:27:30.255Z,100125.53
2022-08-05T02:30:16.505Z,100133.44
2022-08-05T02:32:48.041Z,100138.28
2022-08-05T02:35:22.148Z,100157.78
2022-08-05T02:37:56.574Z,100164.47
2022-08-05T02:40:26.837Z,100175.63
2022-08-05T02:42:55.514Z,100187.28
2022-08-05T02:45:25.431Z,100187.22
2022-08-05T02:48:11.688Z,100218.69
2022-08-05T02:50:43.840Z,100219.44
2022-08-05T02:53:19.150Z,100212.88
2022-08-05T02:55:59.542Z,100212.09
2022-08-05T02:58:27.330Z,100243.03
2022-08-05T03:00:56.469Z,100248.28
2022-08-05T03:03:23.837Z,100227.75
2022-08-05T03:06:55.284Z,100188.38
2022-08-05T03:08:42.710Z,100095.38
2022-08-05T03:11:56.548Z,100030.28
2022-08-05T03:14:04.769Z,99985.50
2022-08-05T03:16:35.803Z,99980.00
2022-08-05T03:19:06.513Z,100016.47
2022-08-05T03:21:41.710Z,100062.69
2022-08-05T03:24:16.886Z,100100.47
2022-08-05T03:26:43.409Z,100135.22
2022-08-05T03:29:17.215Z,100144.81
2022-08-05T03:31:56.889Z,100143.81
2022-08-05T03:34:27.961Z,100136.38
2022-08-05T03:36:55.490Z,100128.38
2022-08-05T03:39:27.040Z,100121.84
2022-08-05T03:41:56.363Z,100137.91
2022-08-05T03:44:23.468Z,100150.31
2022-08-05T03:46:50.144Z,100146.38
2022-08-05T03:49:16.896Z,100148.03
2022-08-05T03:52:36.907Z,100145.31
2022-08-05T03:56:00.824Z,100123.66
2022-08-05T03:57:46.773Z,100138.72
2022-08-05T04:00:16.304Z,100127.41
2022-08-05T04:02:58.204Z,100117.47
2022-08-05T04:05:33.689Z,100137.09
2022-08-05T04:08:02.868Z,100101.59
2022-08-05T04:10:37.171Z,100101.31
2022-08-05T04:13:06.220Z,100121.28
2022-08-05T04:15:36.258Z,100113.88
2022-08-05T04:18:06.785Z,100109.59
2022-08-05T04:20:34.512Z,100105.84
2022-08-05T04:23:01.286Z,100091.41
2022-08-05T04:25:38.707Z,100087.44
2022-08-05T04:28:14.326Z,100094.66
2022-08-05T04:30:41.622Z,100079.03
2022-08-05T04:33:09.529Z,100065.25
2022-08-05T04:36:16.343Z,100057.94
2022-08-05T04:38:22.500Z,100023.22
2022-08-05T04:41:06.731Z,100009.44
2022-08-05T04:43:33.908Z,100040.63
2022-08-05T04:46:00.442Z,100083.47
2022-08-05T04:48:28.369Z,100070.97
2022-08-05T04:51:02.614Z,100052.75
2022-08-05T04:53:38.769Z,100092.81
2022-08-05T04:56:33.467Z,100101.84
2022-08-05T04:58:53.857Z,100102.53
2022-08-05T05:02:05.491Z,100120.66
2022-08-05T05:04:06.689Z,100125.75
2022-08-05T05:06:39.381Z,100139.84
2022-08-05T05:09:14.145Z,100140.69
2022-08-05T05:11:53.925Z,100132.75
2022-08-05T05:14:31.653Z,100145.63
2022-08-05T05:16:59.778Z,100139.66
2022-08-05T05:19:27.424Z,100141.75
2022-08-05T05:22:03.577Z,100135.78
2022-08-05T05:24:58.946Z,100139.66
2022-08-05T05:27:44.254Z,100126.69
2022-08-05T05:30:29.173Z,100115.84
2022-08-05T05:33:00.815Z,100121.41
2022-08-05T05:35:29.196Z,100114.66
2022-08-05T05:38:09.260Z,100120.41
2022-08-05T05:40:42.483Z,100126.97
2022-08-05T05:43:14.396Z,100135.91
2022-08-05T05:45:48.098Z,100135.09
2022-08-05T05:48:15.983Z,100136.22
2022-08-05T05:50:44.256Z,100136.66
2022-08-05T05:53:21.075Z,100142.38
2022-08-05T05:55:51.839Z,100146.69
2022-08-05T05:58:32.105Z,100143.72
2022-08-05T06:01:04.881Z,100144.28
2022-08-05T06:04:00.537Z,100140.91
2022-08-05T06:06:31.081Z,100152.69
2022-08-05T06:09:00.349Z,100153.50
2022-08-05T06:11:28.796Z,100149.91
2022-08-05T06:13:56.092Z,100152.44
2022-08-05T06:16:28.286Z,100155.22
2022-08-05T06:19:00.239Z,100159.63
2022-08-05T06:21:37.620Z,100154.56
2022-08-05T06:24:07.769Z,100155.91
2022-08-05T06:26:38.184Z,100165.41
2022-08-05T06:29:06.954Z,100172.81
2022-08-05T06:31:51.399Z,100184.72
2022-08-05T06:34:19.916Z,100193.38
2022-08-05T06:36:57.414Z,100193.47
2022-08-05T06:39:27.191Z,100184.78
2022-08-05T06:41:58.909Z,100188.00
2022-08-05T06:44:25.601Z,100186.66
2022-08-05T06:46:52.512Z,100181.56
2022-08-05T06:49:21.381Z,100173.88
2022-08-05T06:52:07.369Z,100181.41
2022-08-05T06:54:33.785Z,100178.72
2022-08-05T06:57:58.043Z,100189.81
2022-08-05T06:59:57.980Z,100188.16
2022-08-05T07:02:24.675Z,100191.44
2022-08-05T07:04:51.246Z,100177.19
2022-08-05T07:07:24.076Z,100188.66
2022-08-05T07:10:03.376Z,100191.31
2022-08-05T07:12:49.175Z,100191.06
2022-08-05T07:16:00.521Z,100200.31
2022-08-05T07:18:29.188Z,100186.22
2022-08-05T07:20:56.933Z,100206.34
2022-08-05T07:23:26.100Z,100213.47
2022-08-05T07:25:54.641Z,100220.88
2022-08-05T07:28:22.917Z,100228.59
2022-08-05T07:30:50.392Z,100238.47
2022-08-05T07:33:37.199Z,100232.84
2022-08-05T07:36:20.152Z,100232.91
2022-08-05T07:38:47.385Z,100229.03
2022-08-05T07:42:08.494Z,100242.53
2022-08-05T07:44:18.536Z,100234.50
2022-08-05T07:46:48.489Z,100237.63
2022-08-05T07:49:16.443Z,100242.06
2022-08-05T07:51:53.050Z,100247.56
2022-08-05T07:54:21.927Z,100257.66
2022-08-05T07:57:14.657Z,100255.44
2022-08-05T07:59:40.971Z,100257.34
2022-08-05T08:02:16.202Z,100263.75
2022-08-05T08:04:45.007Z,100274.25
2022-08-05T08:07:11.998Z,100262.41
2022-08-05T08:09:38.387Z,100269.94
2022-08-05T08:12:11.486Z,100275.88
2022-08-05T08:14:47.023Z,100274.84
2022-08-05T08:17:15.857Z,100275.53
2022-08-05T08:20:43.221Z,100286.44
2022-08-05T08:22:30.871Z,100295.53
2022-08-05T08:25:03.138Z,100289.22
2022-08-05T08:27:39.906Z,100307.44
2022-08-05T08:30:29.727Z,100305.06
2022-08-05T08:32:58.657Z,100312.84
2022-08-05T08:35:34.767Z,100310.91
2022-08-05T08:38:01.796Z,100314.56
2022-08-05T08:40:29.913Z,100306.34
2022-08-05T08:42:57.668Z,100319.31
2022-08-05T08:45:44.786Z,100321.25
2022-08-05T08:48:41.389Z,100327.31
2022-08-05T08:51:54.482Z,100323.56
2022-08-05T08:53:50.623Z,100330.53
2022-08-05T08:56:20.923Z,100341.50
2022-08-05T08:58:49.635Z,100336.91
2022-08-05T09:01:19.055Z,100346.13
2022-08-05T09:03:55.053Z,100364.78
2022-08-05T09:06:24.187Z,100364.91
2022-08-05T09:08:55.479Z,100360.66
2022-08-05T09:11:51.301Z,100382.41
2022-08-05T09:14:54.247Z,100372.06
2022-08-05T09:16:55.183Z,100372.66
2022-08-05T09:19:27.977Z,100377.38
2022-08-05T09:22:22.686Z,100360.09
2022-08-05T09:25:13.787Z,100374.66
2022-08-05T09:28:03.847Z,100371.72
2022-08-05T09:30:34.994Z,100378.66
2022-08-05T09:33:02.333Z,100375.34
2022-08-05T09:35:29.472Z,100374.22
2022-08-05T09:38:17.915Z,100372.31
2022-08-05T09:40:51.939Z,100372.56
2022-08-05T09:43:40.681Z,100375.25
2022-08-05T09:46:32.526Z,100370.31
2022-08-05T09:49:07.105Z,100378.56
2022-08-05T09:51:39.928Z,100385.16
2022-08-05T09:54:08.593Z,100371.03
2022-08-05T09:56:37.912Z,100386.78
2022-08-05T09:59:10.156Z,100392.53
2022-08-05T10:01:45.742Z,100394.78
2022-08-05T10:04:16.027Z,100400.19
2022-08-05T10:06:59.668Z,100413.09
2022-08-05T10:09:29.814Z,100416.97
2022-08-05T10:12:18.683Z,100424.00
2022-08-05T10:15:16.416Z,100432.47
2022-08-05T10:17:54.484Z,100444.00
2022-08-05T10:20:23.826Z,100437.38
2022-08-05T10:22:51.845Z,100434.31
2022-08-05T10:25:19.596Z,100435.97
2022-08-05T10:28:13.528Z,100455.34
2022-08-05T10:31:19.838Z,100441.47
2022-08-05T10:33:25.541Z,100458.00
2022-08-05T10:35:59.914Z,100467.03
2022-08-05T10:38:29.294Z,100470.00
2022-08-05T10:41:09.596Z,100475.88
2022-08-05T10:43:57.338Z,100463.44
2022-08-05T10:46:43.930Z,100467.47
2022-08-05T10:49:16.628Z,100475.34
2022-08-05T10:51:57.280Z,100484.75
2022-08-05T10:54:55.811Z,100500.75
2022-08-05T10:57:29.468Z,100495.22
2022-08-05T11:00:17.915Z,100496.63
2022-08-05T11:03:24.646Z,100513.09
2022-08-05T11:06:15.327Z,100522.63
2022-08-05T11:09:32.326Z,100528.44
2022-08-05T11:12:26.631Z,100526.78
2022-08-05T11:15:20.107Z,100537.84
2022-08-05T11:18:07.474Z,100544.34
2022-08-05T11:20:45.219Z,100541.34
2022-08-05T11:24:04.589Z,100545.59
2022-08-05T11:26:37.466Z,100536.88
2022-08-05T11:29:13.832Z,100559.22
2022-08-05T11:31:56.561Z,100551.00
2022-08-05T11:34:37.638Z,100564.25
2022-08-05T11:38:14.334Z,100558.34
2022-08-05T11:40:00.808Z,100564.25
2022-08-05T11:42:32.705Z,100562.97
2022-08-05T11:45:23.260Z,100571.13
2022-08-05T11:47:55.128Z,100567.78
2022-08-05T11:50:22.306Z,100545.97
2022-08-05T11:52:51.104Z,100569.41
2022-08-05T11:55:19.643Z,100552.09
2022-08-05T11:58:09.203Z,100564.22
2022-08-05T12:00:37.739Z,100552.47
2022-08-05T12:03:29.555Z,100569.31
2022-08-05T12:06:00.389Z,100561.97
2022-08-05T12:08:27.515Z,100567.47
2022-08-05T12:10:56.661Z,100566.09
2022-08-05T12:13:48.133Z,100562.31
2022-08-05T12:16:19.027Z,100566.69
2022-08-05T12:18:49.543Z,100574.31
2022-08-05T12:21:23.800Z,100571.88
2022-08-05T12:24:00.006Z,100568.03
2022-08-05T12:26:32.637Z,100576.78
2022-08-05T12:28:59.888Z,100574.31
2022-08-05T12:31:33.710Z,100580.59
2022-08-05T12:34:20.488Z,100580.88
2022-08-05T12:36:49.680Z,100581.94
2022-08-05T12:39:17.679Z,100583.63
2022-08-05T12:41:45.209Z,100591.97
2022-08-05T12:44:28.553Z,100593.31
2022-08-05T12:47:01.846Z,100603.91
2022-08-05T12:50:03.141Z,100598.22
2022-08-05T12:52:33.967Z,100598.75
2022-08-05T12:55:18.148Z,100605.16
2022-08-05T12:58:49.053Z,100600.56
2022-08-05T13:02:01.961Z,100594.78
2022-08-05T13:03:32.374Z,100602.44
2022-08-05T13:06:00.919Z,100608.50
2022-08-05T13:08:30.254Z,100615.19
2022-08-05T13:11:04.342Z,100609.06
2022-08-05T13:14:06.783Z,100611.09
2022-08-05T13:16:20.157Z,100627.69
2022-08-05T13:18:55.287Z,100618.22
2022-08-05T13:21:28.280Z,100624.38
2022-08-05T13:24:05.189Z,100628.31
2022-08-05T13:26:31.612Z,100639.50
2022-08-05T13:28:59.045Z,100633.78
2022-08-05T13:31:33.835Z,100639.38
2022-08-05T13:34:25.629Z,100640.66
2022-08-05T13:36:53.877Z,100635.22
2022-08-05T13:40:13.892Z,100640.31
2022-08-05T13:42:07.225Z,100635.00
2022-08-05T13:44:34.762Z,100634.28
2022-08-05T13:47:08.529Z,100641.06
2022-08-05T13:49:35.923Z,100640.00
2022-08-05T13:52:12.584Z,100638.38
2022-08-05T13:54:39.947Z,100642.47
2022-08-05T13:57:07.393Z,100637.25
2022-08-05T13:59:37.904Z,100635.34
2022-08-05T14:02:26.645Z,100638.88
2022-08-05T14:05:19.381Z,100649.41
2022-08-05T14:08:03.309Z,100633.03
2022-08-05T14:10:34.714Z,100643.88
2022-08-05T14:13:01.297Z,100653.47
2022-08-05T14:16:06.971Z,100642.97
2022-08-05T14:18:18.558Z,100658.59
2022-08-05T14:20:55.080Z,100657.25
2022-08-05T14:23:25.169Z,100653.41
2022-08-05T14:25:58.795Z,100652.19
2022-08-05T14:28:29.817Z,100657.56
2022-08-05T14:31:00.586Z,100662.94
2022-08-05T14:33:27.740Z,100646.25
2022-08-05T14:36:14.066Z,100663.94
2022-08-05T14:38:40.408Z,100667.09
2022-08-05T14:41:07.939Z,100672.25
2022-08-05T14:43:57.592Z,100672.66
2022-08-05T14:46:28.090Z,100675.00
2022-08-05T14:48:57.729Z,100669.94
2022-08-05T14:51:25.257Z,100666.13
2022-08-05T14:54:27.172Z,100672.91
2022-08-05T14:56:44.344Z,100677.19
2022-08-05T14:59:13.668Z,100680.97
2022-08-05T15:01:48.430Z,100668.19
2022-08-05T15:04:15.817Z,100681.78
2022-08-05T15:06:42.213Z,100675.66
2022-08-05T15:09:15.984Z,100663.22
2022-08-05T15:12:04.016Z,100687.19
2022-08-05T15:14:35.617Z,100682.75
2022-08-05T15:17:44.390Z,100675.31
2022-08-05T15:19:56.055Z,100673.09
2022-08-05T15:22:26.882Z,100676.81
2022-08-05T15:24:54.850Z,100650.38
2022-08-05T15:27:21.213Z,100677.47
2022-08-05T15:29:47.546Z,100687.44
2022-08-05T15:32:21.521Z,100680.75
2022-08-05T15:34:54.006Z,100688.97
2022-08-05T15:38:32.588Z,100685.66
2022-08-05T15:41:04.036Z,100683.59
2022-08-05T15:43:00.449Z,100684.56
2022-08-05T15:45:38.136Z,100684.00
2022-08-05T15:48:05.585Z,100685.78
2022-08-05T15:50:33.261Z,100682.59
2022-08-05T15:53:04.184Z,100690.75
2022-08-05T15:56:01.389Z,100671.13
2022-08-05T15:58:18.881Z,100683.41
2022-08-05T16:01:04.146Z,100683.03
2022-08-05T16:03:33.831Z,100673.09
2022-08-05T16:06:00.654Z,100698.19
2022-08-05T16:08:30.696Z,100693.41
2022-08-05T16:10:58.168Z,100691.25
2022-08-05T16:13:34.061Z,100694.69
2022-08-05T16:16:01.045Z,100698.09
2022-08-05T16:18:28.962Z,100706.06
2022-08-05T16:20:55.611Z,100709.44
2022-08-05T16:23:22.051Z,100711.16
2022-08-05T16:25:49.759Z,100706.94
2022-08-05T16:28:22.251Z,100704.13
2022-08-05T16:30:52.018Z,100697.53
2022-08-05T16:33:19.232Z,100692.44
2022-08-05T16:35:49.923Z,100709.91
2022-08-05T16:38:25.631Z,100702.47
2022-08-05T16:41:00.088Z,100712.63
2022-08-05T16:43:31.750Z,100719.31
2022-08-05T16:46:07.662Z,100726.44
2022-08-05T16:48:39.528Z,100726.44
2022-08-05T16:51:09.904Z,100712.81
2022-08-05T16:54:05.089Z,100729.91
2022-08-05T16:56:25.865Z,100726.31
2022-08-05T16:58:52.273Z,100723.91
2022-08-05T17:01:19.131Z,100740.00
2022-08-05T17:03:46.046Z,100734.41
2022-08-05T17:06:12.611Z,100739.78
2022-08-05T17:08:53.048Z,100736.91
2022-08-05T17:11:23.903Z,100756.84
2022-08-05T17:14:00.200Z,100735.91
2022-08-05T17:16:36.615Z,100732.94
2022-08-05T17:19:07.895Z,100757.41
2022-08-05T17:21:37.321Z,100757.72
2022-08-05T17:24:30.085Z,100764.22
2022-08-05T17:26:55.856Z,100765.06
2022-08-05T17:29:33.236Z,100763.97
2022-08-05T17:32:00.744Z,100766.84
2022-08-05T17:34:29.756Z,100769.41
2022-08-05T17:36:56.787Z,100748.09
2022-08-05T17:39:24.420Z,100778.19
2022-08-05T17:42:20.337Z,100781.63
2022-08-05T17:44:50.819Z,100777.66
2022-08-05T17:47:22.205Z,100778.03
2022-08-05T17:50:00.371Z,100781.81
2022-08-05T17:52:31.521Z,100774.66
2022-08-05T17:54:58.237Z,100786.25
2022-08-05T17:57:24.728Z,100789.06
2022-08-05T18:00:03.382Z,100787.31
2022-08-05T18:02:31.522Z,100790.53
2022-08-05T18:04:58.551Z,100797.13
2022-08-05T18:07:25.178Z,100793.91
2022-08-05T18:10:10.133Z,100798.63
2022-08-05T18:12:37.448Z,100802.97
2022-08-05T18:15:04.786Z,100803.44
2022-08-05T18:18:01.076Z,100809.03
2022-08-05T18:20:19.370Z,100804.50
2022-08-05T18:22:57.403Z,100817.94
2022-08-05T18:25:25.190Z,100819.38
2022-08-05T18:27:59.247Z,100838.38
2022-08-05T18:30:29.168Z,100831.94
2022-08-05T18:33:00.193Z,100828.34
2022-08-05T18:35:49.559Z,100843.06
2022-08-05T18:38:16.482Z,100852.19
2022-08-05T18:41:57.469Z,100858.09
2022-08-05T18:43:37.935Z,100853.25
2022-08-05T18:46:10.032Z,100854.00
2022-08-05T18:48:41.701Z,100865.63
2022-08-05T18:52:05.876Z,100862.69
2022-08-05T18:54:13.973Z,100864.13
2022-08-05T18:56:40.489Z,100865.28
2022-08-05T18:59:44.254Z,100867.28
2022-08-05T19:01:57.178Z,100868.94
2022-08-05T19:04:25.241Z,100869.50
2022-08-05T19:06:53.721Z,100875.03
2022-08-05T19:09:21.068Z,100872.19
2022-08-05T19:12:00.986Z,100870.06
2022-08-05T19:14:53.502Z,100886.78
2022-08-05T19:17:16.187Z,100888.75
2022-08-05T19:19:46.779Z,100889.66
2022-08-05T19:22:21.574Z,100906.84
2022-08-05T19:25:00.170Z,100901.75
2022-08-05T19:27:30.233Z,100909.72
2022-08-05T19:29:57.619Z,100908.78
2022-08-05T19:32:26.208Z,100920.50
2022-08-05T19:34:55.175Z,100913.97
2022-08-05T19:37:35.158Z,100922.41
2022-08-05T19:40:10.547Z,100910.53
2022-08-05T19:42:38.805Z,100933.00
2022-08-05T19:45:07.139Z,100930.84
2022-08-05T19:47:37.683Z,100939.63
2022-08-05T19:50:06.022Z,100951.25
2022-08-05T19:52:34.303Z,100960.25
2022-08-05T19:55:06.617Z,100949.09
2022-08-05T19:57:47.658Z,100956.59
2022-08-05T20:00:22.068Z,100968.91
2022-08-05T20:02:48.411Z,100970.63
2022-08-05T20:05:16.587Z,100979.41
2022-08-05T20:07:55.021Z,100975.13
2022-08-05T20:10:24.482Z,100970.19
2022-08-05T20:12:51.658Z,100970.66
2022-08-05T20:15:48.987Z,100981.47
2022-08-05T20:18:10.413Z,100983.41
2022-08-05T20:20:55.339Z,100994.22
2022-08-05T20:23:23.498Z,101002.16
2022-08-05T20:25:52.252Z,101002.84
2022-08-05T20:28:20.043Z,101004.13
2022-08-05T20:30:46.670Z,101010.84
2022-08-05T20:33:15.904Z,101018.13
2022-08-05T20:35:45.586Z,101010.25
2022-08-05T20:38:20.005Z,101022.75
2022-08-05T20:40:50.542Z,101016.13
2022-08-05T20:43:17.463Z,101029.63
2022-08-05T20:46:03.851Z,101040.88
2022-08-05T20:48:30.177Z,101040.66
2022-08-05T20:50:56.537Z,101046.69
2022-08-05T20:53:36.429Z,101028.69
2022-08-05T20:56:09.132Z,101042.16
2022-08-05T20:58:36.082Z,101041.31
2022-08-05T21:01:03.903Z,101046.31
2022-08-05T21:03:34.301Z,101050.06
2022-08-05T21:06:01.624Z,101051.72
2022-08-05T21:08:41.455Z,101054.00
2022-08-05T21:11:12.932Z,101052.78
2022-08-05T21:13:59.253Z,101051.97
2022-08-05T21:16:29.346Z,101060.88
2022-08-05T21:19:00.078Z,101060.47
2022-08-05T21:21:43.994Z,101067.28
2022-08-05T21:24:15.330Z,101063.56
2022-08-05T21:26:44.106Z,101059.63
2022-08-05T21:29:16.913Z,101063.38
2022-08-05T21:31:43.337Z,101072.47
2022-08-05T21:34:10.509Z,101067.53
2022-08-05T21:36:37.647Z,101068.75
2022-08-05T21:39:04.151Z,101076.84
2022-08-05T21:41:34.242Z,101065.03
2022-08-05T21:44:04.264Z,101077.03
2022-08-05T21:46:34.640Z,101085.34
2022-08-05T21:49:01.736Z,101081.81
2022-08-05T21:52:21.359Z,101080.53
2022-08-05T21:54:14.409Z,101089.66
2022-08-05T21:56:44.429Z,101084.66
2022-08-05T21:59:23.984Z,101082.56
2022-08-05T22:01:51.984Z,101092.72
2022-08-05T22:04:21.129Z,101091.88
2022-08-05T22:06:52.045Z,101082.94
2022-08-05T22:09:21.037Z,101094.94
2022-08-05T22:11:48.296Z,101099.28
2022-08-05T22:14:35.161Z,101098.03
2022-08-05T22:17:06.718Z,101099.03
2022-08-05T22:20:00.466Z,101111.06
2022-08-05T22:22:26.875Z,101108.13
2022-08-05T22:25:20.897Z,101105.78
2022-08-05T22:28:04.855Z,101110.53
2022-08-05T22:30:38.413Z,101100.28
2022-08-05T22:33:57.662Z,101111.50
2022-08-05T22:36:08.848Z,101105.69
2022-08-05T22:38:36.509Z,101110.00
2022-08-05T22:41:09.743Z,101113.66
2022-08-05T22:43:37.989Z,101110.94
2022-08-05T22:46:12.076Z,101116.66
2022-08-05T22:48:47.316Z,101112.69
2022-08-05T22:51:16.070Z,101122.84
2022-08-05T22:53:49.808Z,101118.72
2022-08-05T22:56:16.872Z,101122.81
2022-08-05T22:58:43.735Z,101125.28
2022-08-05T23:01:10.390Z,101134.94
2022-08-05T23:03:57.609Z,101123.41
2022-08-05T23:06:23.204Z,101133.03
2022-08-05T23:08:52.847Z,101143.97
2022-08-05T23:11:19.190Z,101144.38
2022-08-05T23:13:45.613Z,101148.31
2022-08-05T23:16:26.107Z,101143.34
2022-08-05T23:19:00.885Z,101136.88
2022-08-05T23:21:43.085Z,101152.19
2022-08-05T23:24:14.573Z,101156.53
2022-08-05T23:26:41.686Z,101160.88
2022-08-05T23:29:10.534Z,101165.25
2022-08-05T23:31:42.193Z,101141.47
2022-08-05T23:34:08.566Z,101175.38
2022-08-05T23:36:40.235Z,101181.13
2022-08-05T23:39:17.409Z,101184.84
2022-08-05T23:41:50.418Z,101193.09
2022-08-05T23:44:16.881Z,101194.31
2022-08-05T23:46:43.551Z,101194.88
2022-08-05T23:49:17.026Z,101192.56
2022-08-05T23:52:07.260Z,101196.47
2022-08-05T23:54:38.505Z,101201.03
2022-08-05T23:57:06.752Z,101201.41
